Time;durP1;ratioP1;P1;durP2;ratioP2;P2;SDS_P1;SDS_P2;PMS_P1;PMS_P2;Temp;Humidity;BMP_temperature;BMP_pressure;BME280_temperature;BME280_humidity;BME280_pressure;Samples;Min_cycle;Max_cycle;Signal;HPM_P1;HPM_P2
2022/12/09 00:01:52;;;;;;;34.27;18.60;;;2.80;99.90;;;;;;5013378;28;20034;-53
2022/12/09 00:04:18;;;;;;;34.10;19.03;;;2.80;99.90;;;;;;5013396;28;20062;-50
2022/12/09 00:06:43;;;;;;;38.07;19.57;;;2.80;99.90;;;;;;5013112;28;20490;-50
2022/12/09 00:09:13;;;;;;;36.23;19.23;;;2.90;99.90;;;;;;5012774;28;20120;-54
2022/12/09 00:11:39;;;;;;;35.47;19.07;;;2.90;99.90;;;;;;5013046;28;20514;-52
2022/12/09 00:14:05;;;;;;;35.17;19.27;;;2.90;99.90;;;;;;5013142;28;20165;-54
2022/12/09 00:16:30;;;;;;;35.60;19.00;;;2.90;99.90;;;;;;5013029;28;20064;-51
2022/12/09 00:18:57;;;;;;;36.37;18.57;;;2.90;99.90;;;;;;5012826;28;20106;-51
2022/12/09 00:21:26;;;;;;;33.20;18.73;;;2.90;99.90;;;;;;5012858;28;20479;-51
2022/12/09 00:23:54;;;;;;;36.97;19.05;;;2.90;99.90;;;;;;5013110;28;20506;-51
2022/12/09 00:26:22;;;;;;;31.87;18.20;;;2.90;99.90;;;;;;5012700;28;20026;-53
2022/12/09 00:28:48;;;;;;;33.10;19.30;;;2.90;99.90;;;;;;5012567;28;20068;-51
2022/12/09 00:31:23;;;;;;;41.93;21.10;;;2.90;99.90;;;;;;5011411;28;20041;-53
2022/12/09 00:33:50;;;;;;;38.97;19.17;;;2.90;99.90;;;;;;5012834;28;20022;-54
2022/12/09 00:36:18;;;;;;;38.60;19.97;;;2.90;99.90;;;;;;5011204;28;20029;-54
2022/12/09 00:38:45;;;;;;;41.83;21.00;;;2.90;99.90;;;;;;5012245;28;20529;-54
2022/12/09 00:41:12;;;;;;;39.97;22.60;;;2.90;99.90;;;;;;5011894;28;20034;-54
2022/12/09 00:43:38;;;;;;;41.07;21.30;;;2.90;99.90;;;;;;5012731;28;20033;-52
2022/12/09 00:46:04;;;;;;;44.03;21.80;;;2.90;99.90;;;;;;5012524;28;20034;-52
2022/12/09 00:48:33;;;;;;;43.33;22.47;;;2.90;99.90;;;;;;5012010;28;20452;-53
2022/12/09 00:50:59;;;;;;;40.10;21.33;;;2.90;99.90;;;;;;5011001;28;20048;-51
2022/12/09 00:53:26;;;;;;;38.90;21.77;;;2.90;99.90;;;;;;5012309;28;20390;-54
2022/12/09 00:55:52;;;;;;;37.37;21.27;;;2.90;99.90;;;;;;5012213;28;20061;-51
2022/12/09 01:00:52;;;;;;;38.43;20.83;;;2.90;99.90;;;;;;4950803;28;20130;-53
2022/12/09 01:03:18;;;;;;;36.77;21.43;;;2.90;99.90;;;;;;4953819;28;20102;-52
2022/12/09 01:05:45;;;;;;;43.00;22.60;;;2.90;99.90;;;;;;4953835;28;20046;-53
2022/12/09 01:08:12;;;;;;;39.70;22.57;;;2.90;99.90;;;;;;4953898;28;20039;-53
2022/12/09 01:10:39;;;;;;;39.57;21.37;;;2.90;99.90;;;;;;4972289;28;20031;-52
2022/12/09 01:13:05;;;;;;;42.00;22.30;;;2.90;99.90;;;;;;4973064;28;20046;-53
2022/12/09 01:15:31;;;;;;;37.67;20.63;;;2.90;99.90;;;;;;4971665;28;20039;-52
2022/12/09 01:17:57;;;;;;;41.33;21.70;;;2.90;99.90;;;;;;4972778;28;20109;-52
2022/12/09 01:20:22;;;;;;;41.27;22.63;;;2.80;99.90;;;;;;4972624;28;20030;-53
2022/12/09 01:22:48;;;;;;;42.57;22.27;;;2.90;99.90;;;;;;4972830;28;20074;-51
2022/12/09 01:25:14;;;;;;;40.83;21.97;;;2.80;99.90;;;;;;4971581;28;20050;-53
2022/12/09 01:27:40;;;;;;;43.20;23.43;;;2.80;99.90;;;;;;4972628;28;20030;-53
2022/12/09 01:30:09;;;;;;;44.77;23.23;;;2.80;99.90;;;;;;4987229;28;20515;-52
2022/12/09 01:32:35;;;;;;;42.07;22.70;;;2.80;99.90;;;;;;4972535;28;20495;-52
2022/12/09 01:35:01;;;;;;;40.80;22.80;;;2.80;99.90;;;;;;4972797;28;20027;-53
2022/12/09 01:37:27;;;;;;;42.97;21.97;;;2.80;99.90;;;;;;4972402;28;20029;-52
2022/12/09 01:39:53;;;;;;;38.63;22.03;;;2.80;99.90;;;;;;4972301;28;20023;-54
2022/12/09 01:42:22;;;;;;;43.33;22.50;;;2.80;99.90;;;;;;4972526;28;20042;-53
2022/12/09 01:45:34;;;;;;;44.03;22.87;;;2.70;99.90;;;;;;4972505;28;20030;-53
2022/12/09 01:48:05;;;;;;;43.13;22.40;;;2.70;99.90;;;;;;4972239;28;20058;-53
2022/12/09 01:50:33;;;;;;;40.67;22.53;;;2.70;99.90;;;;;;4970583;28;20034;-54
2022/12/09 01:52:59;;;;;;;52.77;23.40;;;2.70;99.90;;;;;;4970923;28;20035;-53
2022/12/09 01:55:26;;;;;;;40.17;21.97;;;2.70;99.90;;;;;;4972393;28;20088;-54
2022/12/09 01:57:52;;;;;;;41.13;23.37;;;2.70;99.90;;;;;;4972232;28;20037;-53
2022/12/09 02:00:18;;;;;;;42.33;23.57;;;2.70;99.90;;;;;;4986803;28;20070;-53
2022/12/09 02:02:47;;;;;;;43.53;23.30;;;2.70;99.90;;;;;;4972246;28;20089;-52
2022/12/09 02:05:18;;;;;;;42.80;22.20;;;2.70;99.90;;;;;;4971003;28;20571;-52
2022/12/09 02:07:48;;;;;;;39.47;21.63;;;2.70;99.90;;;;;;4971957;28;20027;-52
2022/12/09 02:10:16;;;;;;;40.20;21.17;;;2.70;99.90;;;;;;4970564;28;20030;-51
2022/12/09 02:12:57;;;;;;;37.43;20.97;;;2.80;99.90;;;;;;4987045;28;20031;-50
2022/12/09 02:15:26;;;;;;;38.23;20.23;;;2.80;99.90;;;;;;4987123;28;20125;-46
2022/12/09 02:18:00;;;;;;;39.83;20.77;;;2.70;99.90;;;;;;4970585;28;20400;-49
2022/12/09 02:21:05;;;;;;;37.50;20.20;;;2.70;99.90;;;;;;4986688;28;20510;-51
2022/12/09 02:23:38;;;;;;;38.87;20.20;;;2.70;99.90;;;;;;4972122;28;20054;-51
2022/12/09 02:26:16;;;;;;;36.63;19.77;;;2.60;99.90;;;;;;4987077;28;20066;-52
2022/12/09 02:29:18;;;;;;;39.08;19.65;;;2.60;99.90;;;;;;4970517;28;20023;-53
2022/12/09 02:32:03;;;;;;;39.83;18.67;;;2.60;99.90;;;;;;4959932;28;20130;-52
2022/12/09 02:34:36;;;;;;;34.93;18.43;;;2.60;99.90;;;;;;4986903;28;20027;-52
2022/12/09 02:37:13;;;;;;;38.80;18.07;;;2.70;99.90;;;;;;4970558;28;20420;-51
2022/12/09 02:39:51;;;;;;;32.40;15.93;;;2.70;99.90;;;;;;4986711;28;20027;-52
2022/12/09 02:42:22;;;;;;;33.33;16.40;;;2.60;99.90;;;;;;4987046;28;20034;-52
2022/12/09 02:44:49;;;;;;;33.38;18.35;;;2.60;99.90;;;;;;4972059;28;20093;-48
2022/12/09 02:47:19;;;;;;;;;;;2.60;99.90;;;;;;4970897;28;20090;-52
2022/12/09 02:49:50;;;;;;;34.57;16.93;;;2.50;99.90;;;;;;4970310;28;19916;-52
2022/12/09 02:52:18;;;;;;;29.50;16.30;;;2.50;99.90;;;;;;4986629;28;20031;-52
2022/12/09 02:54:45;;;;;;;30.80;16.57;;;2.50;99.90;;;;;;4972193;28;20546;-54
2022/12/09 02:57:38;;;;;;;29.53;15.43;;;2.40;99.90;;;;;;4970345;28;20051;-52
2022/12/09 03:00:05;;;;;;;31.20;14.87;;;2.40;99.90;;;;;;4970335;28;20388;-51
2022/12/09 03:02:38;;;;;;;29.37;15.67;;;2.40;99.90;;;;;;4971840;28;20035;-52
2022/12/09 03:05:22;;;;;;;28.03;15.70;;;2.40;99.90;;;;;;4975459;28;20118;-51
2022/12/09 03:08:09;;;;;;;27.37;15.20;;;2.30;99.90;;;;;;4975115;28;20081;-52
2022/12/09 03:11:03;;;;;;;32.77;15.50;;;2.30;99.90;;;;;;4975022;28;20439;-52
2022/12/09 03:13:58;;;;;;;31.13;16.40;;;2.30;99.90;;;;;;4974352;28;20047;-52
2022/12/09 03:16:40;;;;;;;27.83;14.40;;;2.30;99.90;;;;;;4974800;28;20147;-52
2022/12/09 03:19:27;;;;;;;27.00;14.37;;;2.40;99.90;;;;;;4975055;28;20043;-47
2022/12/09 03:21:57;;;;;;;27.50;14.90;;;2.40;99.90;;;;;;4975185;28;20041;-53
2022/12/09 03:24:33;;;;;;;23.07;12.83;;;2.40;99.90;;;;;;4975123;28;20046;-51
2022/12/09 03:27:05;;;;;;;26.00;13.43;;;2.40;99.90;;;;;;4974839;28;20074;-50
2022/12/09 03:29:34;;;;;;;25.60;13.87;;;2.30;99.90;;;;;;4974911;28;20041;-52
2022/12/09 03:31:59;;;;;;;26.57;13.23;;;2.30;99.90;;;;;;4973631;28;20500;-52
2022/12/09 03:34:32;;;;;;;24.80;14.07;;;2.30;99.90;;;;;;4974987;28;20481;-52
2022/12/09 03:37:00;;;;;;;26.63;13.70;;;2.30;99.90;;;;;;4974691;28;20054;-52
2022/12/09 03:39:30;;;;;;;26.57;14.00;;;2.30;99.90;;;;;;4974423;28;20058;-52
2022/12/09 03:42:01;;;;;;;27.20;13.80;;;2.30;99.90;;;;;;4974746;28;20502;-52
2022/12/09 03:45:02;;;;;;;25.20;13.80;;;2.40;99.90;;;;;;4974828;28;20376;-50
2022/12/09 03:47:31;;;;;;;29.23;14.53;;;2.40;99.90;;;;;;4974058;28;20336;-50
2022/12/09 03:49:57;;;;;;;22.97;13.43;;;2.40;99.90;;;;;;4974441;28;20043;-51
2022/12/09 03:52:32;;;;;;;24.23;12.57;;;2.40;99.90;;;;;;4974619;28;20437;-51
2022/12/09 03:55:04;;;;;;;26.43;12.83;;;2.40;99.90;;;;;;4974593;28;20121;-48
2022/12/09 03:57:33;;;;;;;23.57;13.03;;;2.40;99.90;;;;;;4974251;28;20039;-51
2022/12/09 04:00:00;;;;;;;30.50;13.50;;;2.40;99.90;;;;;;4972723;28;20718;-53
2022/12/09 04:02:27;;;;;;;25.00;13.33;;;2.40;99.90;;;;;;4974443;28;20507;-52
2022/12/09 04:04:53;;;;;;;25.57;13.57;;;2.40;99.90;;;;;;4974314;28;20039;-52
2022/12/09 04:07:19;;;;;;;22.53;12.93;;;2.40;99.90;;;;;;4974178;28;20092;-53
2022/12/09 04:09:45;;;;;;;27.40;13.47;;;2.40;99.90;;;;;;4973982;28;20110;-52
2022/12/09 04:12:10;;;;;;;26.43;13.63;;;2.40;99.90;;;;;;4974571;28;20485;-51
2022/12/09 04:14:36;;;;;;;26.13;13.37;;;2.40;99.90;;;;;;4973738;28;20603;-54
2022/12/09 04:17:02;;;;;;;28.27;13.83;;;2.30;99.90;;;;;;4973901;28;20088;-53
2022/12/09 04:19:28;;;;;;;27.67;14.73;;;2.30;99.90;;;;;;4973891;28;20419;-52
2022/12/09 04:21:54;;;;;;;28.03;14.20;;;2.30;99.90;;;;;;4974065;28;20030;-51
2022/12/09 04:24:19;;;;;;;28.73;13.83;;;2.20;99.90;;;;;;4973978;28;20041;-52
2022/12/09 04:26:45;;;;;;;26.57;14.13;;;2.20;99.90;;;;;;4973736;28;20077;-53
2022/12/09 04:29:11;;;;;;;27.87;14.67;;;2.20;99.90;;;;;;4973493;28;20391;-52
2022/12/09 04:31:37;;;;;;;30.30;15.40;;;2.20;99.90;;;;;;4973628;28;20038;-52
2022/12/09 04:34:03;;;;;;;24.17;13.63;;;2.20;99.90;;;;;;4973754;28;20023;-52
2022/12/09 04:36:29;;;;;;;26.50;13.40;;;2.20;99.90;;;;;;4988498;28;20069;-52
2022/12/09 04:38:55;;;;;;;26.77;13.23;;;2.20;99.90;;;;;;4973456;28;20061;-53
2022/12/09 04:41:21;;;;;;;27.37;13.50;;;2.10;99.90;;;;;;4973593;28;20592;-53
2022/12/09 04:43:48;;;;;;;27.37;14.10;;;2.10;99.90;;;;;;4973405;28;20122;-52
2022/12/09 04:46:15;;;;;;;23.83;13.43;;;2.10;99.90;;;;;;4973591;28;20109;-52
2022/12/09 04:48:41;;;;;;;26.87;14.37;;;2.10;99.90;;;;;;4973460;28;20035;-53
2022/12/09 04:51:08;;;;;;;25.30;14.23;;;2.00;99.90;;;;;;4973498;28;20035;-52
2022/12/09 04:53:34;;;;;;;24.97;13.27;;;2.00;99.90;;;;;;4973342;28;20023;-52
2022/12/09 04:56:09;;;;;;;26.87;13.57;;;2.00;99.90;;;;;;4973356;28;20034;-52
2022/12/09 04:58:35;;;;;;;21.80;12.07;;;2.00;99.90;;;;;;4972637;28;20538;-49
2022/12/09 05:01:08;;;;;;;22.43;12.33;;;2.00;99.90;;;;;;4973250;28;20027;-52
2022/12/09 05:03:35;;;;;;;26.00;11.93;;;2.00;99.90;;;;;;4973372;28;20487;-51
2022/12/09 05:06:05;;;;;;;24.80;12.73;;;2.00;99.90;;;;;;4973246;28;20030;-53
2022/12/09 05:08:31;;;;;;;25.55;12.32;;;2.00;99.90;;;;;;4972708;28;20043;-51
2022/12/09 05:10:57;;;;;;;28.30;12.20;;;2.00;99.90;;;;;;4972833;28;20038;-49
2022/12/09 05:13:25;;;;;;;24.40;11.50;;;2.10;99.90;;;;;;4972971;28;20033;-52
2022/12/09 05:15:53;;;;;;;28.90;12.80;;;2.10;99.90;;;;;;4973186;28;20038;-48
2022/12/09 05:18:18;;;;;;;21.67;10.97;;;2.10;99.90;;;;;;4972753;28;20031;-47
2022/12/09 05:20:44;;;;;;;24.90;12.17;;;2.10;99.90;;;;;;4972682;28;20490;-48
2022/12/09 05:23:10;;;;;;;26.53;12.40;;;2.10;99.90;;;;;;4972852;28;20039;-47
2022/12/09 05:25:36;;;;;;;24.47;11.27;;;2.10;99.90;;;;;;4972131;28;20557;-48
2022/12/09 05:28:01;;;;;;;25.37;12.80;;;2.10;99.90;;;;;;4972825;28;20060;-50
2022/12/09 05:30:28;;;;;;;26.20;13.00;;;2.10;99.90;;;;;;4972552;28;20035;-48
2022/12/09 05:32:54;;;;;;;33.20;16.03;;;2.10;99.90;;;;;;4972706;28;20435;-47
2022/12/09 05:35:20;;;;;;;33.87;16.80;;;2.10;99.90;;;;;;4972599;28;20042;-47
2022/12/09 05:37:46;;;;;;;30.33;16.70;;;2.10;99.90;;;;;;4971276;28;20113;-48
2022/12/09 05:40:11;;;;;;;28.47;14.63;;;2.10;99.90;;;;;;4972193;28;20126;-49
2022/12/09 05:42:38;;;;;;;29.37;15.73;;;2.10;99.90;;;;;;4972433;28;20066;-49
2022/12/09 05:45:04;;;;;;;29.13;14.03;;;2.10;99.90;;;;;;4972703;28;20042;-48
2022/12/09 05:47:30;;;;;;;24.90;13.23;;;2.10;99.90;;;;;;4972059;28;20043;-48
2022/12/09 05:49:55;;;;;;;29.50;13.93;;;2.20;99.90;;;;;;4972079;28;20039;-47
2022/12/09 05:52:21;;;;;;;21.20;12.50;;;2.20;99.90;;;;;;4972194;28;20039;-49
2022/12/09 05:54:47;;;;;;;24.80;13.17;;;2.20;99.90;;;;;;4972212;28;20061;-50
2022/12/09 05:57:12;;;;;;;26.00;14.10;;;2.20;99.90;;;;;;4972072;28;20057;-50
2022/12/09 05:59:38;;;;;;;26.47;13.90;;;2.20;99.90;;;;;;4970572;28;20404;-47
2022/12/09 06:02:04;;;;;;;22.97;12.43;;;2.20;99.90;;;;;;4972293;28;20078;-48
2022/12/09 06:04:29;;;;;;;24.97;13.63;;;2.20;99.90;;;;;;4972180;28;20038;-49
2022/12/09 06:06:55;;;;;;;27.77;15.03;;;2.20;99.90;;;;;;4971971;28;20496;-50
2022/12/09 06:09:21;;;;;;;26.30;15.17;;;2.20;99.90;;;;;;4971600;28;20042;-49
2022/12/09 06:11:46;;;;;;;29.20;15.40;;;2.20;99.90;;;;;;4971956;28;20030;-48
2022/12/09 06:14:12;;;;;;;27.93;15.00;;;2.10;99.90;;;;;;4971857;28;20030;-52
2022/12/09 06:16:38;;;;;;;30.87;16.53;;;2.10;99.90;;;;;;4971489;28;20041;-51
2022/12/09 06:19:04;;;;;;;29.47;14.93;;;2.10;99.90;;;;;;4971576;28;20467;-50
2022/12/09 06:21:30;;;;;;;29.47;14.93;;;2.10;99.90;;;;;;4971601;28;20049;-48
2022/12/09 06:23:56;;;;;;;26.67;14.63;;;2.00;99.90;;;;;;4971600;28;20034;-51
2022/12/09 06:26:27;;;;;;;27.57;14.30;;;2.00;99.90;;;;;;4971511;28;20390;-47
2022/12/09 06:28:54;;;;;;;28.40;15.00;;;2.00;99.90;;;;;;4971487;28;20085;-51
2022/12/09 06:31:20;;;;;;;26.17;14.07;;;2.10;99.90;;;;;;4971443;28;20030;-46
2022/12/09 06:33:46;;;;;;;28.17;14.13;;;2.00;99.90;;;;;;4971649;28;20435;-49
2022/12/09 06:36:12;;;;;;;28.33;13.77;;;2.00;99.90;;;;;;4971485;28;20034;-47
2022/12/09 06:38:38;;;;;;;26.33;14.43;;;2.00;99.90;;;;;;4973139;28;20961;-49
2022/12/09 06:41:08;;;;;;;27.43;14.93;;;2.10;99.90;;;;;;4975302;28;20086;-51
2022/12/09 06:43:34;;;;;;;27.13;15.10;;;2.10;99.90;;;;;;4975444;28;20034;-51
2022/12/09 06:46:00;;;;;;;29.03;14.83;;;2.10;99.90;;;;;;4975407;28;20027;-51
2022/12/09 06:48:26;;;;;;;30.37;15.77;;;2.00;99.90;;;;;;4975037;28;20130;-52
2022/12/09 06:50:52;;;;;;;34.13;16.60;;;1.90;99.90;;;;;;4974882;28;20023;-48
2022/12/09 06:53:18;;;;;;;30.23;15.33;;;1.90;99.90;;;;;;4975241;28;20038;-48
2022/12/09 06:55:43;;;;;;;29.30;16.17;;;1.80;99.90;;;;;;4975190;28;20077;-51
2022/12/09 06:58:09;;;;;;;35.37;16.53;;;1.80;99.90;;;;;;4975090;28;20031;-48
2022/12/09 07:00:35;;;;;;;33.33;17.53;;;1.60;99.90;;;;;;5010389;23;20617;-54
2022/12/09 07:03:01;;;;;;;31.07;15.80;;;1.50;99.90;;;;;;5014329;28;20570;-51
2022/12/09 07:05:26;;;;;;;33.50;15.83;;;1.50;99.90;;;;;;5014160;28;20034;-53
2022/12/09 07:07:52;;;;;;;27.80;14.47;;;1.50;99.90;;;;;;5013763;28;20038;-49
2022/12/09 07:10:19;;;;;;;32.73;16.00;;;1.40;99.90;;;;;;5013914;28;20501;-53
2022/12/09 07:12:44;;;;;;;34.27;16.10;;;1.30;99.90;;;;;;5013799;28;20434;-55
2022/12/09 07:15:11;;;;;;;33.77;16.27;;;1.30;99.90;;;;;;5013988;28;20080;-53
2022/12/09 07:17:36;;;;;;;37.90;16.93;;;1.20;99.90;;;;;;5013721;28;20097;-54
2022/12/09 07:20:03;;;;;;;33.97;17.67;;;1.20;99.90;;;;;;5013611;28;20579;-54
2022/12/09 07:22:28;;;;;;;35.13;16.77;;;1.10;99.90;;;;;;5013836;28;20037;-55
2022/12/09 07:24:54;;;;;;;33.00;16.80;;;1.10;99.90;;;;;;5013857;28;20495;-55
2022/12/09 07:27:20;;;;;;;32.33;16.87;;;1.00;99.90;;;;;;5013734;28;20470;-54
2022/12/09 07:29:46;;;;;;;36.20;17.90;;;1.00;99.90;;;;;;5013313;28;20040;-55
2022/12/09 07:32:11;;;;;;;35.27;17.97;;;0.90;99.90;;;;;;5013581;28;20033;-55
2022/12/09 07:34:37;;;;;;;41.67;17.47;;;0.80;99.90;;;;;;5013570;28;20433;-54
2022/12/09 07:37:03;;;;;;;34.97;17.17;;;0.70;99.90;;;;;;5013301;28;20251;-54
2022/12/09 07:39:29;;;;;;;35.43;17.27;;;0.70;99.90;;;;;;5013199;28;20050;-55
2022/12/09 07:41:56;;;;;;;35.30;18.23;;;0.60;99.90;;;;;;5013360;28;20443;-54
2022/12/09 07:44:27;;;;;;;39.03;17.70;;;0.70;99.90;;;;;;5013490;28;20030;-54
2022/12/09 07:46:54;;;;;;;37.47;17.77;;;0.60;99.90;;;;;;5013141;28;20107;-54
2022/12/09 07:49:19;;;;;;;40.50;18.13;;;0.70;99.90;;;;;;5012440;28;20084;-54
2022/12/09 07:51:45;;;;;;;38.83;17.63;;;0.60;99.90;;;;;;5012967;28;20340;-54
2022/12/09 07:54:13;;;;;;;37.00;17.50;;;0.60;99.90;;;;;;5013324;28;20352;-54
2022/12/09 07:56:39;;;;;;;35.07;17.17;;;0.50;99.90;;;;;;5012942;28;20121;-55
2022/12/09 07:59:06;;;;;;;34.03;17.57;;;0.50;99.90;;;;;;5012863;28;20389;-54
2022/12/09 08:01:32;;;;;;;34.27;16.73;;;0.50;99.90;;;;;;5012978;28;20034;-52
2022/12/09 08:03:58;;;;;;;32.37;16.77;;;0.50;99.90;;;;;;5013045;28;20072;-55
2022/12/09 08:06:26;;;;;;;40.03;18.50;;;0.60;99.90;;;;;;5012809;28;20498;-52
2022/12/09 08:08:51;;;;;;;36.60;17.13;;;0.60;99.90;;;;;;5012727;28;20026;-53
2022/12/09 08:11:24;;;;;;;38.60;18.23;;;0.60;99.90;;;;;;5012906;28;20498;-53
2022/12/09 08:13:51;;;;;;;32.37;16.93;;;0.70;99.90;;;;;;5012976;28;20022;-56
2022/12/09 08:16:19;;;;;;;37.30;18.00;;;0.70;99.90;;;;;;5014809;28;20429;-55
2022/12/09 08:18:45;;;;;;;35.60;17.20;;;0.80;99.90;;;;;;5012633;28;20045;-53
2022/12/09 08:21:15;;;;;;;33.23;17.27;;;0.80;99.90;;;;;;5012902;28;20442;-54
2022/12/09 08:23:41;;;;;;;32.77;16.43;;;0.80;99.90;;;;;;5012682;28;20037;-53
2022/12/09 08:26:08;;;;;;;33.97;17.27;;;0.90;99.90;;;;;;5012742;28;20125;-53
2022/12/09 08:28:34;;;;;;;33.13;16.63;;;0.90;99.90;;;;;;5012305;28;20022;-55
2022/12/09 08:31:09;;;;;;;33.77;16.20;;;0.90;99.90;;;;;;5012362;28;20034;-53
2022/12/09 08:33:35;;;;;;;33.07;16.57;;;1.00;99.90;;;;;;5012554;28;20084;-50
2022/12/09 08:36:03;;;;;;;31.20;16.47;;;1.10;99.90;;;;;;5012631;28;20460;-53
2022/12/09 08:38:30;;;;;;;30.20;16.17;;;1.10;99.90;;;;;;5012296;28;20072;-51
2022/12/09 08:40:57;;;;;;;34.97;16.63;;;1.20;99.90;;;;;;5012249;28;20058;-54
2022/12/09 08:43:22;;;;;;;33.60;17.13;;;1.20;99.90;;;;;;5012301;28;20044;-51
2022/12/09 08:45:48;;;;;;;36.27;17.73;;;1.30;99.90;;;;;;5012284;28;20424;-51
2022/12/09 08:48:14;;;;;;;32.30;17.20;;;1.30;99.90;;;;;;5012128;28;20040;-54
2022/12/09 08:50:39;;;;;;;31.43;17.17;;;1.30;99.90;;;;;;5011918;28;20061;-53
2022/12/09 08:53:05;;;;;;;33.83;17.00;;;1.40;99.90;;;;;;5012019;28;20026;-56
2022/12/09 08:55:31;;;;;;;36.77;17.40;;;1.50;99.90;;;;;;5011982;28;20053;-51
2022/12/09 08:57:57;;;;;;;34.97;17.43;;;1.60;99.90;;;;;;5011659;28;20090;-51
2022/12/09 09:00:22;;;;;;;34.20;18.23;;;1.60;99.90;;;;;;5010459;28;20141;-53
2022/12/09 09:02:48;;;;;;;33.53;17.73;;;1.70;99.90;;;;;;5011851;28;20029;-52
2022/12/09 09:05:14;;;;;;;34.63;17.07;;;1.70;99.90;;;;;;5011785;28;20041;-53
2022/12/09 09:07:40;;;;;;;33.97;18.43;;;1.80;99.90;;;;;;5011629;28;20037;-54
2022/12/09 09:10:07;;;;;;;39.00;18.97;;;1.90;99.90;;;;;;5011318;28;20037;-50
2022/12/09 09:12:33;;;;;;;39.13;18.40;;;1.90;99.90;;;;;;5011582;28;20030;-49
2022/12/09 09:14:59;;;;;;;38.17;18.83;;;1.90;99.90;;;;;;5011579;28;20385;-53
2022/12/09 09:17:24;;;;;;;32.37;17.33;;;1.90;99.90;;;;;;5011430;28;20116;-54
2022/12/09 09:19:50;;;;;;;31.30;16.73;;;2.00;99.90;;;;;;5011154;28;20037;-52
2022/12/09 09:22:16;;;;;;;34.03;16.97;;;2.10;99.90;;;;;;5011511;28;20033;-52
2022/12/09 09:24:41;;;;;;;36.27;18.47;;;2.30;99.90;;;;;;5011600;28;20053;-51
2022/12/09 09:27:07;;;;;;;32.60;16.93;;;2.30;99.90;;;;;;5011217;28;20109;-53
2022/12/09 09:29:33;;;;;;;31.60;16.53;;;2.40;99.90;;;;;;5011141;28;20060;-52
2022/12/09 09:31:59;;;;;;;31.83;17.40;;;2.40;99.90;;;;;;5011324;28;20049;-52
2022/12/09 09:34:26;;;;;;;28.27;15.93;;;2.40;99.90;;;;;;5011354;28;20057;-52
2022/12/09 09:36:52;;;;;;;30.33;16.27;;;2.50;99.90;;;;;;5009883;28;20068;-53
2022/12/09 09:39:19;;;;;;;36.87;16.70;;;2.50;99.90;;;;;;5011138;28;20041;-55
2022/12/09 09:41:45;;;;;;;34.13;18.17;;;2.60;99.90;;;;;;5011279;28;20026;-53
2022/12/09 09:44:26;;;;;;;32.67;16.63;;;2.60;99.90;;;;;;5011147;28;20429;-54
2022/12/09 09:46:54;;;;;;;30.00;16.53;;;2.50;99.90;;;;;;5011034;28;20514;-54
2022/12/09 09:49:29;;;;;;;31.97;15.10;;;2.60;99.90;;;;;;5011018;28;20030;-50
2022/12/09 09:51:56;;;;;;;29.83;15.67;;;2.60;99.90;;;;;;5011048;28;20446;-54
2022/12/09 09:54:22;;;;;;;32.30;17.33;;;2.60;99.90;;;;;;5011198;28;20383;-55
2022/12/09 09:57:36;;;;;;;26.70;15.10;;;2.60;99.90;;;;;;5010773;28;20030;-54
2022/12/09 10:00:02;;;;;;;32.07;16.80;;;2.60;99.90;;;;;;5008153;28;20030;-54
2022/12/09 10:02:43;;;;;;;29.47;14.80;;;2.60;99.90;;;;;;5010783;28;20038;-54
2022/12/09 10:05:41;;;;;;;27.00;15.07;;;2.70;99.90;;;;;;5010956;28;20087;-53
2022/12/09 10:08:22;;;;;;;29.80;15.30;;;2.70;99.90;;;;;;5010238;28;20120;-52
2022/12/09 10:10:53;;;;;;;27.57;16.27;;;2.70;99.90;;;;;;5010724;28;20034;-53
2022/12/09 10:13:46;;;;;;;34.80;16.77;;;2.80;99.90;;;;;;5010584;28;20080;-55
2022/12/09 10:16:17;;;;;;;32.27;16.53;;;2.80;99.90;;;;;;5011057;28;20492;-55
2022/12/09 10:19:06;;;;;;;31.73;17.37;;;2.90;99.90;;;;;;5010765;28;20437;-54
2022/12/09 10:21:32;;;;;;;31.55;17.08;;;3.00;99.90;;;;;;5010098;28;20046;-54
2022/12/09 10:24:12;;;;;;;31.07;17.07;;;2.90;99.90;;;;;;5010764;28;20040;-56
2022/12/09 10:26:38;;;;;;;26.13;13.77;;;2.90;99.90;;;;;;5010798;28;20109;-54
2022/12/09 10:29:17;;;;;;;33.20;17.53;;;2.90;99.90;;;;;;5010858;28;20049;-53
2022/12/09 10:31:43;;;;;;;;;;;3.00;99.90;;;;;;5011388;28;20069;-55
2022/12/09 10:34:12;;;;;;;22.37;11.77;;;3.00;99.90;;;;;;5010707;28;19948;-53
2022/12/09 10:36:43;;;;;;;24.55;13.68;;;3.00;99.90;;;;;;5010526;28;20114;-54
2022/12/09 10:39:16;;;;;;;27.40;14.93;;;3.00;99.90;;;;;;5010431;28;20076;-55
2022/12/09 10:44:37;;;;;;;21.47;10.93;;;3.10;99.90;;;;;;5011023;28;20126;-54
2022/12/09 10:47:05;;;;;;;23.47;12.27;;;3.10;99.90;;;;;;5010468;28;20096;-53
2022/12/09 10:49:33;;;;;;;17.30;9.70;;;3.10;99.90;;;;;;5010424;28;20034;-53
2022/12/09 10:51:59;;;;;;;21.07;10.63;;;3.20;99.90;;;;;;5010394;28;20045;-54
2022/12/09 10:54:28;;;;;;;23.43;12.07;;;3.20;99.90;;;;;;5010556;28;20026;-54
2022/12/09 10:57:14;;;;;;;17.27;9.02;;;3.20;99.90;;;;;;5010365;28;20101;-53
2022/12/09 10:59:55;;;;;;;18.90;9.30;;;3.20;99.90;;;;;;5010279;28;20399;-51
2022/12/09 11:02:22;;;;;;;14.47;8.10;;;3.20;99.90;;;;;;5010436;28;20111;-54
2022/12/09 11:04:48;;;;;;;11.77;5.80;;;3.20;99.90;;;;;;5010573;28;20030;-54
2022/12/09 11:07:21;;;;;;;13.10;6.73;;;3.10;99.90;;;;;;5010192;28;20033;-53
2022/12/09 11:09:49;;;;;;;13.70;6.90;;;3.10;99.90;;;;;;5010005;28;20030;-52
2022/12/09 11:12:38;;;;;;;15.27;8.60;;;3.20;99.90;;;;;;5010321;28;20038;-53
2022/12/09 11:15:06;;;;;;;12.77;7.00;;;3.20;99.90;;;;;;5010516;28;20022;-54
2022/12/09 11:17:35;;;;;;;12.80;7.07;;;3.30;99.90;;;;;;5010178;28;20088;-54
2022/12/09 11:20:04;;;;;;;;;;;3.40;99.90;;;;;;5010468;28;20030;-55
2022/12/09 11:22:38;;;;;;;13.97;6.70;;;3.50;99.90;;;;;;5010633;28;19913;-51
2022/12/09 11:25:10;;;;;;;13.63;6.20;;;3.60;99.90;;;;;;5012773;28;20038;-53
2022/12/09 11:27:38;;;;;;;13.97;6.43;;;3.80;99.90;;;;;;5013702;28;20030;-55
2022/12/09 11:30:29;;;;;;;12.80;6.77;;;3.90;99.90;;;;;;5013429;28;20040;-54
2022/12/09 11:33:22;;;;;;;14.60;6.80;;;4.10;99.90;;;;;;5013876;28;20030;-54
2022/12/09 11:35:48;;;;;;;15.00;6.80;;;4.40;99.90;;;;;;5013638;28;20025;-56
2022/12/09 11:38:29;;;;;;;14.90;7.57;;;4.40;99.90;;;;;;5013287;28;20494;-53
2022/12/09 11:41:06;;;;;;;17.27;7.67;;;4.80;99.90;;;;;;5013592;28;20029;-55
2022/12/09 11:43:41;;;;;;;15.53;6.50;;;5.30;99.90;;;;;;5013719;28;20034;-55
2022/12/09 11:46:13;;;;;;;13.80;6.50;;;5.60;99.90;;;;;;5013388;28;20030;-53
2022/12/09 11:48:42;;;;;;;14.37;6.63;;;5.80;99.90;;;;;;5013174;28;20038;-53
2022/12/09 11:51:31;;;;;;;16.08;7.10;;;5.90;99.90;;;;;;5012927;28;20036;-53
2022/12/09 11:54:23;;;;;;;12.70;6.70;;;6.10;99.90;;;;;;5013239;28;20037;-53
2022/12/09 11:56:50;;;;;;;14.50;6.90;;;5.90;99.90;;;;;;5013244;28;20038;-51
2022/12/09 11:59:23;;;;;;;11.83;7.20;;;5.50;99.90;;;;;;5012996;28;20029;-54
2022/12/09 12:02:10;;;;;;;12.67;7.23;;;5.20;99.90;;;;;;5013304;28;20375;-53
2022/12/09 12:04:49;;;;;;;12.60;6.87;;;5.10;99.90;;;;;;5013258;28;20030;-54
2022/12/09 12:07:40;;;;;;;19.42;7.57;;;4.90;99.90;;;;;;5013065;28;20149;-52
2022/12/09 12:10:30;;;;;;;15.07;7.30;;;4.50;99.90;;;;;;5012820;28;20029;-53
2022/12/09 12:13:08;;;;;;;15.73;7.00;;;4.30;99.90;;;;;;5013244;28;20072;-54
2022/12/09 12:15:46;;;;;;;20.70;8.70;;;4.50;99.90;;;;;;5013254;28;20093;-52
2022/12/09 12:18:19;;;;;;;12.13;7.27;;;4.50;99.90;;;;;;5012961;28;20022;-53
2022/12/09 12:21:14;;;;;;;15.43;8.20;;;4.40;99.90;;;;;;5012730;28;20030;-55
2022/12/09 12:23:52;;;;;;;16.50;8.90;;;4.20;99.90;;;;;;5011853;28;20125;-52
2022/12/09 12:26:40;;;;;;;15.17;7.83;;;3.90;99.90;;;;;;5012829;28;20109;-54
2022/12/09 12:29:25;;;;;;;19.83;8.40;;;3.80;99.90;;;;;;5012390;28;20037;-54
2022/12/09 12:32:12;;;;;;;14.63;7.80;;;3.70;99.90;;;;;;5012709;28;20092;-51
2022/12/09 12:35:17;;;;;;;15.93;7.60;;;3.60;99.90;;;;;;5012710;28;20026;-54
2022/12/09 12:38:21;;;;;;;17.00;8.23;;;3.50;99.90;;;;;;5015405;28;20034;-56
2022/12/09 12:41:14;;;;;;;17.37;8.30;;;3.40;99.90;;;;;;5012834;28;20077;-50
2022/12/09 12:46:29;;;;;;;17.13;8.70;;;3.50;99.90;;;;;;5012381;28;20549;-52
2022/12/09 12:49:13;;;;;;;17.23;8.83;;;3.60;99.90;;;;;;5012303;28;20068;-51
2022/12/09 12:52:02;;;;;;;14.80;7.77;;;3.60;99.90;;;;;;5012210;28;20026;-56
2022/12/09 12:55:00;;;;;;;16.80;9.00;;;3.70;99.90;;;;;;5012490;28;20026;-52
2022/12/09 12:57:57;;;;;;;20.80;10.27;;;3.90;99.90;;;;;;5012293;28;20080;-53
2022/12/09 13:00:31;;;;;;;22.10;10.57;;;3.80;99.90;;;;;;5024551;23;20053;-51
2022/12/09 13:03:15;;;;;;;19.17;10.33;;;3.70;99.90;;;;;;5012389;28;20048;-51
2022/12/09 13:05:43;;;;;;;21.17;10.20;;;3.70;99.90;;;;;;5012348;28;20036;-47